Airfield :
LOGIN :

Register | Disclaimer

   EN    FR    IT 

 










Legend :    VFR   Marginal VFR   IFR   Intensive IFR   Very Intensive IFR
Visi :
Ceiling :
>= 8 km
>= 3000ft
5 to 8 km
1000 to 3000 ft
1500m to 5 km
500 to 1000 ft
800 to 1500m
200 to 500 ft
< 800m
< 200 ft
Symbols :   Thunderstorms  Fog  Heavy snow  Heavy precipitations  Wind > 20 kt
SIGMETs :     Misc.  Thunderstorms  Icing  Turbulence  Mountain Waves  Volcanic Ashes







- Airport Elevation : 465 ft
- IATA code : LEJ


EDDP - Leipzig Halle

CURRENT METAR :
  • 180520Z 27005KT 0600 R26L/P2000N R26R/0375V0600N BCFG FEW001 08/07 Q1020 TEMPO 0500 FG

EXPIRED METARs :
  • 180450Z 23003KT 0600 R26L/P2000N R26R/P2000N FG FEW001 08/08 Q1019 TEMPO 0500 FG
  • 180420Z 23004KT 2500 BCFG BR FEW001 08/07 Q1019 TEMPO 0500 FG
  • 180350Z VRB01KT 3000 R26L/0650VP2000D BCFG BR SCT033 08/07 Q1019 TEMPO 1200 BCFG
  • 180320Z VRB01KT 5000 BCFG BR BKN034 09/08 Q1019 TEMPO 1200 BCFG
  • 180250Z VRB01KT 4500 BCFG BR FEW033 08/08 Q1019 TEMPO 1200 BCFG

TAF TAF EDDP
Valid from the 18 at 06:00 until the 19 at 06:00 UTC


180500Z 1806/1906 VRB02KT 0900 FG NSC
TEMPO 1806/1809 0200 FG BKN001
BECMG 1806/1809 32005KT 6000
TEMPO 1809/1814 4000 BR BKN012
PROB30
TEMPO 1902/1906 2000 BCFG
No reported NOTAMs for that airfield.



MET'MAP, your aeronautical weather chart ! - Copyright ORBIFLY December 2007 - Disclaimer

ORBIFLY MET'MAP TEAM :

Programming & Development : Alexandra Zaïnal
Concept & Development : Baudouin d'Aumeries
Co-Development & Prog : Marc-Olivier Méhu
Technical & hardware support : Manuel Goepfert

Contact : metmap@orbifly.com




SOURCES & CREDITS :

   NOAA